Time;durP1;ratioP1;P1;durP2;ratioP2;P2;SDS_P1;SDS_P2;PMS_P1;PMS_P2;Temp;Humidity;BMP_temperature;BMP_pressure;BME280_temperature;BME280_humidity;BME280_pressure;Samples;Min_cycle;Max_cycle;Signal;HPM_P1;HPM_P2
2022/04/01 06:44:51;;;;;;;13.85;4.10;;;17.00;99.90;;;;;;5072065;23;19965;-86
2022/04/01 06:47:40;;;;;;;9.15;2.75;;;17.20;99.90;;;;;;4975190;28;20063;-89
2022/04/01 06:50:09;;;;;;;9.90;3.15;;;17.50;99.90;;;;;;4974206;28;20033;-89
2022/04/01 06:53:17;;;;;;;11.93;2.90;;;17.80;99.90;;;;;;4924225;29;20027;-88
2022/04/01 06:56:03;;;;;;;9.15;2.25;;;18.20;99.90;;;;;;4897722;29;20103;-89
2022/04/01 06:58:31;;;;;;;10.57;2.85;;;18.30;99.90;;;;;;4934440;29;20042;-87
2022/04/01 07:01:02;;;;;;;16.60;2.17;;;18.40;99.90;;;;;;4942955;29;20038;-87
2022/04/01 07:03:28;;;;;;;10.45;3.85;;;18.50;99.90;;;;;;4942857;29;20138;-87
2022/04/01 07:05:55;;;;;;;23.63;2.85;;;18.40;99.90;;;;;;4958474;28;20055;-87
2022/04/01 07:08:22;;;;;;;9.15;3.20;;;18.50;99.90;;;;;;4942547;29;20019;-87
2022/04/01 07:10:48;;;;;;;23.38;3.55;;;18.40;99.90;;;;;;4958338;29;20477;-85
2022/04/01 07:13:16;;;;;;;16.00;3.40;;;18.50;99.90;;;;;;4942324;29;20389;-90
2022/04/01 07:15:45;;;;;;;15.57;3.60;;;18.60;99.90;;;;;;4942335;29;20476;-89
2022/04/01 07:18:11;;;;;;;13.82;3.83;;;18.50;99.90;;;;;;4942573;29;20023;-87
2022/04/01 07:20:38;;;;;;;20.65;4.38;;;18.30;99.90;;;;;;4942268;29;20118;-88
2022/04/01 07:23:04;;;;;;;16.08;2.70;;;18.20;99.90;;;;;;4958367;29;20023;-88
2022/04/01 07:25:31;;;;;;;17.90;3.70;;;18.40;99.90;;;;;;4942164;28;20082;-87
2022/04/01 07:27:58;;;;;;;15.50;3.55;;;18.60;99.90;;;;;;4958061;29;20064;-86
2022/04/01 07:30:25;;;;;;;17.60;3.67;;;18.70;99.90;;;;;;4942325;29;20031;-86
2022/04/01 07:32:56;;;;;;;12.57;2.13;;;18.70;99.90;;;;;;4942211;29;20024;-88
2022/04/01 07:35:23;;;;;;;14.02;2.55;;;18.30;99.90;;;;;;4958155;29;20023;-88
2022/04/01 07:37:50;;;;;;;17.63;2.88;;;18.40;99.90;;;;;;4941971;29;20105;-87
2022/04/01 07:40:18;;;;;;;10.55;3.10;;;18.50;99.90;;;;;;4941798;28;20031;-86
2022/04/01 07:42:45;;;;;;;15.55;3.30;;;18.70;99.90;;;;;;4941666;29;20039;-86
2022/04/01 07:45:12;;;;;;;27.88;3.35;;;18.80;99.90;;;;;;4957614;29;20043;-87
2022/04/01 07:47:39;;;;;;;22.77;3.00;;;18.70;99.90;;;;;;4942027;29;20496;-86
2022/04/01 07:50:06;;;;;;;7.45;1.70;;;18.80;99.90;;;;;;4942012;29;20477;-86
2022/04/01 07:52:33;;;;;;;21.45;2.90;;;19.00;99.90;;;;;;4941732;29;20031;-86
2022/04/01 07:55:01;;;;;;;7.40;2.45;;;19.20;99.90;;;;;;4941699;29;20035;-88
2022/04/01 07:57:27;;;;;;;12.98;2.75;;;19.40;99.90;;;;;;4941819;29;20023;-87
2022/04/01 07:59:54;;;;;;;19.35;3.15;;;19.30;99.90;;;;;;4957654;29;20031;-90
2022/04/01 08:02:20;;;;;;;16.67;2.58;;;19.30;99.90;;;;;;4941565;29;20046;-89
2022/04/01 08:04:47;;;;;;;17.67;3.60;;;19.40;99.90;;;;;;4957687;29;20126;-90
2022/04/01 08:07:14;;;;;;;13.32;2.33;;;19.80;99.90;;;;;;4941426;28;20038;-87
2022/04/01 08:09:40;;;;;;;12.88;2.72;;;20.40;99.90;;;;;;4956824;28;20472;-87
2022/04/01 08:12:08;;;;;;;10.38;3.13;;;20.90;99.90;;;;;;4942352;29;20055;-87
2022/04/01 08:14:36;;;;;;;24.33;3.42;;;21.30;99.90;;;;;;4957409;29;20122;-88
2022/04/01 08:17:03;;;;;;;23.08;5.00;;;20.80;99.90;;;;;;4941277;29;20023;-87
2022/04/01 08:19:33;;;;;;;15.70;3.65;;;20.60;99.90;;;;;;4941640;29;20076;-88
2022/04/01 08:22:00;;;;;;;17.05;4.25;;;20.60;99.90;;;;;;4941249;29;20030;-87
2022/04/01 08:24:26;;;;;;;29.65;4.85;;;20.60;99.90;;;;;;4957147;29;20492;-87
2022/04/01 08:26:53;;;;;;;27.83;6.68;;;20.80;99.90;;;;;;4941294;29;20034;-87
2022/04/01 08:29:19;;;;;;;26.95;6.03;;;21.00;99.90;;;;;;4941141;29;20564;-87
2022/04/01 08:31:46;;;;;;;23.77;5.35;;;21.10;99.90;;;;;;4941084;29;20032;-88
2022/04/01 08:34:13;;;;;;;36.40;5.05;;;21.10;99.90;;;;;;4940999;29;20063;-89
2022/04/01 08:36:39;;;;;;;21.23;3.22;;;21.20;99.90;;;;;;4941028;29;20027;-87
2022/04/01 08:39:06;;;;;;;19.35;4.03;;;21.60;99.90;;;;;;4957047;29;20507;-88
2022/04/01 08:41:33;;;;;;;29.02;4.53;;;21.60;99.90;;;;;;4940978;29;20046;-88
2022/04/01 08:44:04;;;;;;;14.77;3.58;;;22.10;99.90;;;;;;4940579;29;20122;-86
2022/04/01 08:46:31;;;;;;;24.05;4.40;;;21.90;99.90;;;;;;4940877;29;20126;-87
2022/04/01 08:48:58;;;;;;;31.08;4.35;;;21.90;99.90;;;;;;4940706;29;20027;-87
2022/04/01 08:51:28;;;;;;;31.48;4.13;;;21.40;99.90;;;;;;4956729;29;20031;-87
2022/04/01 08:53:55;;;;;;;15.63;6.38;;;21.40;99.90;;;;;;4956576;29;20500;-87
2022/04/01 08:56:22;;;;;;;14.40;3.95;;;20.80;99.90;;;;;;4941155;29;20031;-87
2022/04/01 08:58:48;;;;;;;13.63;3.85;;;20.50;99.90;;;;;;4956430;28;20042;-88
2022/04/01 09:01:16;;;;;;;28.67;4.32;;;20.30;99.90;;;;;;4940527;29;20086;-87
2022/04/01 09:03:44;;;;;;;22.30;4.07;;;20.00;99.90;;;;;;4940555;29;20024;-87
2022/04/01 09:06:11;;;;;;;25.55;4.22;;;19.70;99.90;;;;;;4940553;29;20055;-87
2022/04/01 09:08:41;;;;;;;27.77;4.80;;;19.70;99.90;;;;;;4956432;29;20034;-87
2022/04/01 09:11:13;;;;;;;20.88;4.55;;;19.70;99.90;;;;;;4956320;29;20032;-88
2022/04/01 09:13:50;;;;;;;18.38;2.55;;;19.70;99.90;;;;;;4940477;29;20035;-88
2022/04/01 09:16:25;;;;;;;18.35;2.88;;;19.90;99.90;;;;;;4940307;29;20031;-86
2022/04/01 09:18:54;;;;;;;17.35;3.10;;;19.80;99.90;;;;;;4940295;29;20027;-86
2022/04/01 09:21:26;;;;;;;20.38;4.10;;;20.00;99.90;;;;;;4940278;29;20058;-86
2022/04/01 09:24:00;;;;;;;14.38;2.28;;;19.80;99.90;;;;;;4956237;29;20507;-84
2022/04/01 09:26:31;;;;;;;;;;;19.60;99.90;;;;;;4940257;29;20039;-84
2022/04/01 09:28:59;;;;;;;8.57;2.75;;;19.70;99.90;;;;;;4939548;29;19910;-85
2022/04/01 09:31:40;;;;;;;17.25;2.50;;;19.80;99.90;;;;;;4939584;29;20058;-85
2022/04/01 09:34:11;;;;;;;13.07;3.25;;;19.70;99.90;;;;;;4955614;29;20082;-84
2022/04/01 09:36:41;;;;;;;12.55;2.22;;;19.50;99.90;;;;;;4955568;29;20448;-84
2022/04/01 09:39:17;;;;;;;9.38;2.35;;;19.40;99.90;;;;;;4939840;29;20118;-84
2022/04/01 09:41:50;;;;;;;16.55;3.83;;;19.10;99.90;;;;;;4939964;29;20053;-84
2022/04/01 09:44:23;;;;;;;20.10;2.60;;;18.90;99.90;;;;;;4939787;29;20062;-84
2022/04/01 09:46:56;;;;;;;15.95;2.88;;;19.10;99.90;;;;;;4961237;29;20087;-85
2022/04/01 09:49:57;;;;;;;13.52;3.05;;;19.10;99.90;;;;;;4940741;29;20175;-84
2022/04/01 09:52:26;;;;;;;13.30;3.33;;;19.30;99.90;;;;;;4936704;29;20047;-86
2022/04/01 09:54:55;;;;;;;8.88;2.53;;;19.40;99.90;;;;;;4939728;29;20118;-86
2022/04/01 09:57:24;;;;;;;13.30;2.70;;;19.30;99.90;;;;;;4939737;29;20512;-87
2022/04/01 09:59:54;;;;;;;21.70;4.10;;;19.20;99.90;;;;;;4939460;29;20046;-87
2022/04/01 10:02:21;;;;;;;17.40;2.55;;;19.30;99.90;;;;;;4955566;29;20031;-86
2022/04/01 10:04:48;;;;;;;13.48;2.80;;;19.30;99.90;;;;;;4939402;29;20035;-86
2022/04/01 10:07:15;;;;;;;19.52;2.50;;;19.50;99.90;;;;;;4955277;29;20038;-86
2022/04/01 10:09:43;;;;;;;12.57;3.08;;;19.70;99.90;;;;;;4939178;29;20507;-84
2022/04/01 10:12:13;;;;;;;11.95;2.47;;;19.80;99.90;;;;;;4939338;29;20027;-85
2022/04/01 10:14:41;;;;;;;9.18;2.03;;;19.90;99.90;;;;;;4939147;29;20027;-85
2022/04/01 10:17:11;;;;;;;20.27;2.17;;;20.00;99.90;;;;;;4939039;29;20027;-85
2022/04/01 10:19:41;;;;;;;10.90;2.60;;;20.10;99.90;;;;;;4938961;29;20027;-85
2022/04/01 10:22:16;;;;;;;15.00;2.33;;;20.10;99.90;;;;;;4955032;29;20110;-84
2022/04/01 10:24:54;;;;;;;6.47;2.05;;;20.10;99.90;;;;;;4938731;29;20070;-86
2022/04/01 10:27:44;;;;;;;7.43;2.35;;;20.00;99.90;;;;;;4939115;29;20042;-85
2022/04/01 10:30:16;;;;;;;7.75;1.92;;;20.00;99.90;;;;;;4954987;29;20046;-85
2022/04/01 10:32:45;;;;;;;6.97;1.85;;;20.00;99.90;;;;;;4954337;28;20042;-85
2022/04/01 10:35:24;;;;;;;4.97;1.60;;;19.90;99.90;;;;;;4938815;29;20024;-85
2022/04/01 10:38:14;;;;;;;4.15;2.13;;;19.80;99.90;;;;;;4954771;29;20038;-86
2022/04/01 10:40:45;;;;;;;26.38;2.40;;;19.80;99.90;;;;;;4907776;29;20031;-85
2022/04/01 10:43:22;;;;;;;8.55;2.05;;;19.70;99.90;;;;;;4954555;29;20058;-84
2022/04/01 10:46:05;;;;;;;11.27;1.90;;;19.70;99.90;;;;;;4939007;29;20043;-85
2022/04/01 10:54:14;;;;;;;8.95;2.55;;;19.60;99.90;;;;;;4954500;28;20027;-85
2022/04/01 10:56:43;;;;;;;7.70;1.70;;;19.60;99.90;;;;;;4938750;29;20035;-85
2022/04/01 10:59:24;;;;;;;10.60;2.13;;;19.60;99.90;;;;;;4938765;29;20051;-85
2022/04/01 11:01:56;;;;;;;9.20;2.60;;;19.50;99.90;;;;;;4954868;29;20455;-84
2022/04/01 11:04:27;;;;;;;11.38;2.60;;;19.50;99.90;;;;;;4954567;29;20035;-86
2022/04/01 11:07:14;;;;;;;10.40;1.85;;;19.50;99.90;;;;;;4954597;29;20540;-85
2022/04/01 11:09:45;;;;;;;7.32;2.55;;;19.40;99.90;;;;;;4938686;29;20027;-85
2022/04/01 11:12:19;;;;;;;6.35;2.25;;;19.40;99.90;;;;;;4938583;29;20042;-85
2022/04/01 11:15:14;;;;;;;12.02;2.70;;;19.40;99.90;;;;;;4954681;29;20400;-85
2022/04/01 11:17:40;;;;;;;15.25;3.38;;;19.50;99.90;;;;;;4952320;28;20031;-85
2022/04/01 11:20:19;;;;;;;18.98;3.08;;;19.60;99.90;;;;;;4938585;29;20035;-84
2022/04/01 11:22:54;;;;;;;8.43;1.70;;;19.60;99.90;;;;;;4938773;29;20481;-85
2022/04/01 11:25:23;;;;;;;;;;;19.60;99.90;;;;;;4938965;29;20055;-84
2022/04/01 11:27:57;;;;;;;8.48;2.50;;;19.70;99.90;;;;;;4938376;29;20438;-86
2022/04/01 11:30:27;;;;;;;4.90;2.15;;;19.80;99.90;;;;;;4938090;29;20027;-84
2022/04/01 11:33:13;;;;;;;11.57;2.15;;;19.80;99.90;;;;;;4953935;29;20027;-84
2022/04/01 11:35:44;;;;;;;7.55;2.47;;;19.80;99.90;;;;;;4938193;28;20097;-87
2022/04/01 11:38:15;;;;;;;8.10;1.98;;;19.90;99.90;;;;;;4938454;29;20031;-85
2022/04/01 11:40:49;;;;;;;6.88;2.28;;;19.90;99.90;;;;;;4954168;29;20031;-85
2022/04/01 11:43:18;;;;;;;11.07;2.78;;;19.90;99.90;;;;;;4954189;28;20051;-87
2022/04/01 11:45:57;;;;;;;7.88;2.05;;;19.90;99.90;;;;;;4941502;29;20468;-85
2022/04/01 11:48:39;;;;;;;9.10;2.63;;;19.80;99.90;;;;;;4958001;29;20027;-86
2022/04/01 11:51:19;;;;;;;8.18;2.90;;;19.80;99.90;;;;;;4957587;29;20397;-85
2022/04/01 11:53:52;;;;;;;9.18;2.95;;;19.80;99.90;;;;;;4941985;29;20070;-86
2022/04/01 11:56:30;;;;;;;12.45;2.92;;;19.80;99.90;;;;;;4957599;29;20039;-86
2022/04/01 11:59:03;;;;;;;10.55;3.55;;;19.90;99.90;;;;;;4941585;29;20046;-88
2022/04/01 12:01:54;;;;;;;14.73;3.53;;;20.10;99.90;;;;;;4957519;29;20503;-87
2022/04/01 12:04:33;;;;;;;15.63;3.25;;;20.00;99.90;;;;;;4957280;29;20134;-87
2022/04/01 12:10:17;;;;;;;4.82;2.13;;;20.10;99.90;;;;;;4957410;29;20382;-87
2022/04/01 12:12:54;;;;;;;6.47;2.25;;;20.20;99.90;;;;;;4941487;29;20063;-88
2022/04/01 12:15:52;;;;;;;15.40;3.08;;;20.30;99.90;;;;;;4957503;29;20428;-87
2022/04/01 12:18:22;;;;;;;7.13;2.40;;;20.10;99.90;;;;;;4865253;29;20037;-86
2022/04/01 12:20:52;;;;;;;14.13;2.75;;;19.90;99.90;;;;;;4880884;29;20136;-87
2022/04/01 12:23:22;;;;;;;8.93;3.03;;;19.60;99.90;;;;;;4880982;29;20051;-86
2022/04/01 12:25:52;;;;;;;3.53;2.03;;;19.60;99.90;;;;;;4880745;29;20076;-86
2022/04/01 12:28:35;;;;;;;3.78;1.73;;;19.70;99.90;;;;;;4880779;29;20575;-85
2022/04/01 12:31:01;;;;;;;12.27;2.75;;;19.70;99.90;;;;;;4880675;29;20077;-87
2022/04/01 12:33:32;;;;;;;10.05;2.88;;;19.80;99.90;;;;;;4880588;29;20577;-86
2022/04/01 12:36:13;;;;;;;11.10;3.13;;;19.80;99.90;;;;;;4880669;29;20071;-86
2022/04/01 12:38:43;;;;;;;11.40;2.40;;;20.00;99.90;;;;;;4880604;29;20033;-87
2022/04/01 12:41:17;;;;;;;13.50;3.22;;;20.10;99.90;;;;;;4880367;29;20052;-86
2022/04/01 12:43:48;;;;;;;6.07;2.50;;;20.10;99.90;;;;;;4880045;29;20072;-86
2022/04/01 12:46:23;;;;;;;17.70;4.00;;;20.20;99.90;;;;;;4880314;29;20077;-87
2022/04/01 12:48:51;;;;;;;13.07;3.28;;;20.30;99.90;;;;;;4880340;29;20093;-86
2022/04/01 12:51:19;;;;;;;11.07;2.10;;;20.30;99.90;;;;;;4880242;29;20037;-87
2022/04/01 12:54:13;;;;;;;12.32;3.53;;;20.30;99.90;;;;;;4891476;29;20074;-87
2022/04/01 12:56:42;;;;;;;5.88;2.63;;;20.50;99.90;;;;;;4937285;29;20045;-86
2022/04/01 12:59:10;;;;;;;10.43;2.47;;;20.60;99.90;;;;;;4941179;29;20114;-86
2022/04/01 13:01:40;;;;;;;16.08;2.25;;;20.60;99.90;;;;;;4940395;29;20031;-86
2022/04/01 13:04:09;;;;;;;5.70;1.88;;;20.60;99.90;;;;;;4957380;29;20034;-86
2022/04/01 13:06:40;;;;;;;2.63;1.83;;;20.70;99.90;;;;;;4940155;29;20063;-86
2022/04/01 13:09:10;;;;;;;2.97;1.75;;;20.80;99.90;;;;;;4957294;29;20066;-87
2022/04/01 13:11:44;;;;;;;6.22;2.75;;;20.80;99.90;;;;;;4943482;28;20034;-87
2022/04/01 13:14:29;;;;;;;5.30;1.60;;;20.60;99.90;;;;;;4943567;28;20487;-87
2022/04/01 13:16:58;;;;;;;8.90;2.58;;;20.60;99.90;;;;;;4943474;28;20031;-87
2022/04/01 13:19:33;;;;;;;5.13;1.80;;;20.40;99.90;;;;;;4959556;28;20114;-87
2022/04/01 13:22:07;;;;;;;8.98;1.75;;;20.20;99.90;;;;;;4943296;28;20448;-87
2022/04/01 13:24:38;;;;;;;;;;;19.50;99.90;;;;;;4959622;28;20073;-86
2022/04/01 13:27:11;;;;;;;3.55;1.27;;;19.20;99.90;;;;;;4959448;28;19960;-86
2022/04/01 13:29:40;;;;;;;4.20;1.48;;;19.00;99.90;;;;;;4943435;28;20484;-86
2022/04/01 13:32:08;;;;;;;12.18;1.75;;;18.90;99.90;;;;;;4943244;28;20023;-86
2022/04/01 13:34:37;;;;;;;4.38;1.60;;;19.00;99.90;;;;;;4943051;28;20392;-86
2022/04/01 13:37:05;;;;;;;4.30;1.45;;;19.00;99.90;;;;;;4958960;28;20473;-87
2022/04/01 13:39:32;;;;;;;9.98;1.80;;;19.40;99.90;;;;;;4943074;28;20077;-87
2022/04/01 13:42:00;;;;;;;3.47;1.00;;;19.70;99.90;;;;;;4959113;28;20038;-86
2022/04/01 13:44:28;;;;;;;7.03;1.23;;;19.90;99.90;;;;;;4926855;29;20051;-86
2022/04/01 13:46:58;;;;;;;6.90;1.20;;;19.80;99.90;;;;;;4936879;29;20090;-87
2022/04/01 13:49:32;;;;;;;6.22;1.40;;;19.40;99.90;;;;;;4936746;29;20042;-87
2022/04/01 13:52:03;;;;;;;7.53;1.00;;;19.40;99.90;;;;;;4920719;29;20036;-86
2022/04/01 13:54:30;;;;;;;1.20;0.70;;;19.30;99.90;;;;;;4936512;29;20653;-86
2022/04/01 13:56:58;;;;;;;4.45;1.67;;;19.20;99.90;;;;;;4920625;29;20043;-86
2022/04/01 13:59:26;;;;;;;12.65;1.17;;;18.90;99.90;;;;;;4920622;29;20032;-87
2022/04/01 14:01:53;;;;;;;4.63;1.05;;;18.90;99.90;;;;;;4936213;29;20126;-87
2022/04/01 14:04:20;;;;;;;7.68;1.00;;;18.90;99.90;;;;;;4920829;29;20556;-86
2022/04/01 14:06:49;;;;;;;2.47;0.82;;;18.80;99.90;;;;;;4935852;29;20031;-87
2022/04/01 14:09:22;;;;;;;5.22;1.35;;;18.90;99.90;;;;;;4920327;29;20037;-87
2022/04/01 14:11:51;;;;;;;1.80;0.77;;;18.90;99.90;;;;;;4936144;29;20051;-87
2022/04/01 14:14:18;;;;;;;4.55;0.90;;;18.80;99.90;;;;;;4920247;29;20034;-86
2022/04/01 14:16:46;;;;;;;6.63;2.03;;;18.60;99.90;;;;;;4936226;29;20118;-86
2022/04/01 14:19:12;;;;;;;7.55;0.85;;;18.60;99.90;;;;;;4920448;29;20032;-87
2022/04/01 14:21:39;;;;;;;5.38;1.65;;;18.30;99.90;;;;;;4936276;29;20087;-87
2022/04/01 14:24:06;;;;;;;3.78;1.30;;;18.20;99.90;;;;;;4920124;29;20034;-86
2022/04/01 14:26:34;;;;;;;4.63;1.10;;;17.90;99.90;;;;;;4935937;29;20035;-87
2022/04/01 14:31:57;;;;;;;8.52;1.20;;;17.60;99.90;;;;;;4936038;29;20095;-87
2022/04/01 14:34:33;;;;;;;5.55;1.17;;;17.50;99.90;;;;;;4935954;29;20028;-87
2022/04/01 14:37:00;;;;;;;13.77;1.65;;;17.10;99.90;;;;;;4925198;29;20031;-87
2022/04/01 14:39:29;;;;;;;7.72;1.55;;;17.20;99.90;;;;;;4936075;29;20035;-88
2022/04/01 14:41:56;;;;;;;13.05;1.75;;;17.20;99.90;;;;;;4920091;29;20024;-88
2022/04/01 14:44:24;;;;;;;8.40;1.42;;;17.10;99.90;;;;;;4935813;28;20047;-89
2022/04/01 14:46:54;;;;;;;2.63;1.10;;;17.00;99.90;;;;;;4920264;29;20040;-88
2022/04/01 14:49:21;;;;;;;6.82;1.38;;;16.80;99.90;;;;;;4920097;29;20085;-90
2022/04/01 14:51:48;;;;;;;8.00;1.45;;;16.70;99.90;;;;;;4920115;29;20046;-88
2022/04/01 14:54:17;;;;;;;8.10;1.65;;;16.70;99.90;;;;;;4920163;29;20122;-88
2022/04/01 14:56:44;;;;;;;2.00;1.38;;;16.80;99.90;;;;;;4919948;29;20034;-86
2022/04/01 14:59:12;;;;;;;3.65;1.13;;;16.90;99.90;;;;;;4935901;29;20031;-87
2022/04/01 15:01:38;;;;;;;2.13;1.13;;;16.80;99.90;;;;;;4919715;29;20028;-87
2022/04/01 15:04:05;;;;;;;3.40;1.00;;;16.80;99.90;;;;;;4936519;28;20083;-86
2022/04/01 15:06:33;;;;;;;3.03;0.90;;;17.00;99.90;;;;;;4919990;29;20090;-85
2022/04/01 15:09:00;;;;;;;11.52;1.25;;;16.90;99.90;;;;;;4935703;29;20115;-90
2022/04/01 15:11:28;;;;;;;3.60;0.75;;;17.00;99.90;;;;;;4919952;29;20032;-87
2022/04/01 15:13:54;;;;;;;2.20;0.80;;;17.00;99.90;;;;;;4935629;29;20024;-86
2022/04/01 15:16:21;;;;;;;5.95;1.02;;;17.00;99.90;;;;;;4919739;29;20068;-86
2022/04/01 15:18:47;;;;;;;2.72;1.27;;;17.10;99.90;;;;;;4922305;29;20039;-87
2022/04/01 15:21:13;;;;;;;3.63;0.82;;;17.20;99.90;;;;;;4923427;29;20036;-86
2022/04/01 15:23:41;;;;;;;5.18;0.95;;;17.10;99.90;;;;;;4923325;29;20039;-87
2022/04/01 15:26:08;;;;;;;2.90;1.20;;;17.10;99.90;;;;;;4923420;29;20485;-86
2022/04/01 15:28:35;;;;;;;9.40;1.27;;;17.00;99.90;;;;;;4939213;29;20058;-87
2022/04/01 15:31:01;;;;;;;1.30;0.70;;;16.90;99.90;;;;;;4923501;29;20114;-87
2022/04/01 15:33:45;;;;;;;7.22;1.77;;;16.80;99.90;;;;;;4939088;29;20036;-88
2022/04/01 15:36:17;;;;;;;3.38;0.77;;;16.70;99.90;;;;;;4938990;29;20123;-84
2022/04/01 15:38:51;;;;;;;3.35;0.70;;;16.70;99.90;;;;;;4938753;29;20034;-85
2022/04/01 15:41:22;;;;;;;0.93;0.63;;;16.60;99.90;;;;;;4938968;29;20111;-90
2022/04/01 15:43:50;;;;;;;6.47;0.60;;;16.40;99.90;;;;;;4939257;29;20051;-88
2022/04/01 15:46:42;;;;;;;4.30;0.47;;;16.50;99.90;;;;;;4923137;29;20039;-87
2022/04/01 15:49:10;;;;;;;1.90;0.50;;;16.50;99.90;;;;;;4923202;29;20103;-89
2022/04/01 15:51:39;;;;;;;3.50;1.05;;;16.50;99.90;;;;;;4923024;29;20028;-87
2022/04/01 15:54:07;;;;;;;3.10;0.93;;;16.40;99.90;;;;;;4938764;29;20080;-87
2022/04/01 15:56:36;;;;;;;4.28;0.80;;;16.40;99.90;;;;;;4922754;29;20023;-87
2022/04/01 15:59:02;;;;;;;8.45;0.55;;;16.30;99.90;;;;;;4922805;29;20038;-89
2022/04/01 16:01:32;;;;;;;3.50;0.60;;;16.30;99.90;;;;;;4938681;29;20032;-92
2022/04/01 16:04:04;;;;;;;3.08;0.60;;;16.20;99.90;;;;;;4925477;29;20032;-88
2022/04/01 16:06:31;;;;;;;1.85;0.60;;;16.10;99.90;;;;;;4941273;29;20131;-88
2022/04/01 16:09:01;;;;;;;9.73;0.90;;;16.10;99.90;;;;;;4927141;29;20448;-89
2022/04/01 16:11:31;;;;;;;5.72;0.77;;;16.10;99.90;;;;;;4942597;29;20055;-90
2022/04/01 16:14:04;;;;;;;1.65;0.60;;;16.20;99.90;;;;;;4943209;29;20035;-87
2022/04/01 16:16:30;;;;;;;1.52;0.70;;;16.00;99.90;;;;;;4941534;29;20038;-87
2022/04/01 16:19:00;;;;;;;7.10;0.70;;;15.90;99.90;;;;;;4926030;29;20038;-87
2022/04/01 16:21:27;;;;;;;3.15;0.82;;;15.80;99.90;;;;;;4941656;29;20036;-88
2022/04/01 16:23:56;;;;;;;4.03;0.65;;;15.70;99.90;;;;;;4926185;29;20042;-88
2022/04/01 16:26:23;;;;;;;0.88;0.50;;;15.70;99.90;;;;;;4939122;29;20043;-87
2022/04/01 16:28:53;;;;;;;1.10;0.70;;;15.70;99.90;;;;;;4922331;29;20482;-88
2022/04/01 16:31:20;;;;;;;2.63;0.90;;;15.70;99.90;;;;;;4922121;29;20087;-87
2022/04/01 16:33:47;;;;;;;4.53;2.17;;;15.70;99.90;;;;;;4922515;29;20051;-86
2022/04/01 16:36:14;;;;;;;5.03;1.67;;;15.70;99.90;;;;;;4922216;29;20024;-87
2022/04/01 16:38:44;;;;;;;2.38;0.73;;;15.60;99.90;;;;;;4922089;29;20484;-85
2022/04/01 16:41:10;;;;;;;3.53;1.13;;;15.60;99.90;;;;;;4938293;29;20042;-87
2022/04/01 16:43:37;;;;;;;3.50;1.33;;;15.60;99.90;;;;;;4923884;29;20040;-86
2022/04/01 16:46:04;;;;;;;4.43;1.30;;;15.50;99.90;;;;;;4940090;29;20043;-87
2022/04/01 16:48:31;;;;;;;1.98;0.73;;;15.50;99.90;;;;;;4924176;29;20031;-88
2022/04/01 16:51:07;;;;;;;2.55;0.88;;;15.50;99.90;;;;;;4941481;29;20070;-91
2022/04/01 16:53:34;;;;;;;3.30;0.68;;;15.50;99.90;;;;;;4925841;29;20031;-92
2022/04/01 16:56:00;;;;;;;6.97;1.50;;;15.50;99.90;;;;;;4925558;29;20068;-87
2022/04/01 16:58:28;;;;;;;1.20;0.47;;;15.50;99.90;;;;;;4941241;29;20028;-91
2022/04/01 17:00:55;;;;;;;1.83;0.82;;;15.50;99.90;;;;;;4924577;29;20027;-90
2022/04/01 17:03:21;;;;;;;5.50;1.00;;;15.50;99.90;;;;;;4940673;29;20031;-87
2022/04/01 17:14:08;;;;;;;2.85;0.80;;;15.60;99.90;;;;;;4939714;29;20058;-88
2022/04/01 17:16:36;;;;;;;7.10;1.17;;;15.60;99.90;;;;;;4923724;29;20032;-90
2022/04/01 17:19:06;;;;;;;1.30;1.20;;;15.50;99.90;;;;;;4924497;29;20028;-88
2022/04/01 17:21:34;;;;;;;6.07;2.03;;;15.50;99.90;;;;;;4940105;29;20039;-88
2022/04/01 17:24:02;;;;;;;10.05;2.63;;;15.60;99.90;;;;;;4925535;29;20028;-89
2022/04/01 17:26:29;;;;;;;10.00;2.42;;;15.60;99.90;;;;;;4939459;29;20130;-87
2022/04/01 17:28:55;;;;;;;6.68;2.50;;;15.60;99.90;;;;;;4925071;29;20028;-88
2022/04/01 17:31:28;;;;;;;6.47;2.47;;;15.50;99.90;;;;;;4940996;29;20042;-90
2022/04/01 17:33:57;;;;;;;11.20;1.20;;;15.50;99.90;;;;;;4926344;29;20087;-90
2022/04/01 17:36:23;;;;;;;4.57;1.15;;;15.50;99.90;;;;;;4924622;29;20024;-89
2022/04/01 17:38:52;;;;;;;8.68;1.60;;;15.50;99.90;;;;;;4925199;29;20031;-89
2022/04/01 17:41:23;;;;;;;4.75;1.05;;;15.50;99.90;;;;;;4938717;29;20092;-87
2022/04/01 17:43:51;;;;;;;4.38;1.65;;;15.40;99.90;;;;;;4941679;29;20063;-92
2022/04/01 17:46:19;;;;;;;6.60;2.67;;;15.40;99.90;;;;;;4923535;29;20494;-87
2022/04/01 17:48:45;;;;;;;8.63;2.50;;;15.30;99.90;;;;;;4926395;29;20027;-86
2022/04/01 17:51:12;;;;;;;6.38;1.58;;;15.30;99.90;;;;;;4938436;29;20032;-89
2022/04/01 17:53:39;;;;;;;5.25;1.63;;;15.40;99.90;;;;;;4922672;29;20523;-88
2022/04/01 17:56:07;;;;;;;6.65;1.25;;;15.40;99.90;;;;;;4940129;29;20058;-88
2022/04/01 17:58:44;;;;;;;5.57;2.08;;;15.30;99.90;;;;;;4922171;29;20032;-89
2022/04/01 18:01:13;;;;;;;8.05;2.28;;;15.30;99.90;;;;;;4936410;29;20552;-89
2022/04/01 18:03:40;;;;;;;7.35;2.35;;;15.20;99.90;;;;;;4920591;29;20036;-89
2022/04/01 18:06:08;;;;;;;10.52;2.60;;;15.20;99.90;;;;;;4936484;29;20070;-91
2022/04/01 18:08:39;;;;;;;14.07;6.45;;;15.20;99.90;;;;;;4920962;29;20036;-91
2022/04/01 18:11:12;;;;;;;16.73;7.78;;;15.20;99.90;;;;;;4920541;29;20437;-89
2022/04/01 18:13:40;;;;;;;14.40;5.10;;;15.20;99.90;;;;;;4936718;29;20027;-91
2022/04/01 18:16:09;;;;;;;22.50;6.05;;;15.20;99.90;;;;;;4920528;29;20023;-88
2022/04/01 18:18:36;;;;;;;16.38;5.72;;;15.30;99.90;;;;;;4920447;29;20027;-88
2022/04/01 18:21:06;;;;;;;29.17;7.38;;;15.30;99.90;;;;;;4920571;29;20034;-86
2022/04/01 18:23:32;;;;;;;18.05;6.30;;;15.30;99.90;;;;;;4933959;29;20119;-86
2022/04/01 18:26:05;;;;;;;12.32;4.85;;;15.30;99.90;;;;;;4920350;29;20047;-90
2022/04/01 18:29:10;;;;;;;18.58;6.68;;;15.30;99.90;;;;;;4920369;29;20171;-88
2022/04/01 18:31:38;;;;;;;19.33;7.15;;;15.30;99.90;;;;;;4934484;29;20039;-87
2022/04/01 18:34:09;;;;;;;26.10;6.82;;;15.20;99.90;;;;;;4920508;29;20050;-89
2022/04/01 18:36:39;;;;;;;27.35;7.18;;;15.20;99.90;;;;;;4935864;29;20054;-87
2022/04/01 18:39:10;;;;;;;14.85;7.03;;;15.10;99.90;;;;;;4935906;29;20035;-88
2022/04/01 18:41:42;;;;;;;17.95;6.53;;;15.10;99.90;;;;;;4936056;29;20545;-88
2022/04/01 18:44:09;;;;;;;18.80;7.20;;;15.10;99.90;;;;;;4935956;29;20167;-87
2022/04/01 18:46:37;;;;;;;6.20;3.03;;;15.00;99.90;;;;;;4936063;29;20472;-90
2022/04/01 18:49:10;;;;;;;21.83;6.47;;;15.00;99.90;;;;;;4935769;29;20485;-89
2022/04/01 18:51:39;;;;;;;18.70;4.25;;;14.90;99.90;;;;;;4919968;29;20036;-88
2022/04/01 18:54:06;;;;;;;13.80;5.82;;;14.90;99.90;;;;;;4923373;29;20123;-89
2022/04/01 18:56:32;;;;;;;10.32;3.35;;;14.90;99.90;;;;;;4923925;29;20035;-88
2022/04/01 18:58:59;;;;;;;7.55;2.30;;;14.90;99.90;;;;;;4940536;29;20040;-89
2022/04/01 19:01:34;;;;;;;9.55;4.05;;;14.80;99.90;;;;;;4923888;29;20036;-88
2022/04/01 19:04:07;;;;;;;12.48;4.22;;;14.80;99.90;;;;;;4923836;29;20032;-88
2022/04/01 19:06:48;;;;;;;9.15;2.35;;;14.80;99.90;;;;;;4923650;29;20477;-86
2022/04/01 19:09:30;;;;;;;2.75;1.45;;;14.60;99.90;;;;;;4923539;29;20028;-86
2022/04/01 19:12:08;;;;;;;5.97;1.98;;;14.60;99.90;;;;;;4939288;29;20035;-89
2022/04/01 19:14:38;;;;;;;4.10;1.67;;;14.50;99.90;;;;;;4939292;29;20056;-85
2022/04/01 19:17:07;;;;;;;9.43;2.40;;;14.50;99.90;;;;;;4923827;29;20082;-88
2022/04/01 19:19:35;;;;;;;9.90;2.35;;;14.40;99.90;;;;;;4939278;29;20095;-88
2022/04/01 19:22:11;;;;;;;10.50;3.55;;;14.40;99.90;;;;;;4923590;29;20429;-86
2022/04/01 19:24:48;;;;;;;12.13;2.67;;;14.30;99.90;;;;;;4945987;29;20032;-87
2022/04/01 19:27:17;;;;;;;6.00;1.67;;;14.20;99.90;;;;;;4946680;29;20035;-91
2022/04/01 19:29:46;;;;;;;11.57;2.67;;;14.30;99.90;;;;;;4923354;29;20028;-89
2022/04/01 19:32:16;;;;;;;14.90;4.50;;;14.30;99.90;;;;;;4947981;29;20060;-92
2022/04/01 19:34:43;;;;;;;7.28;3.20;;;14.30;99.90;;;;;;4932245;29;20067;-89
2022/04/01 19:37:12;;;;;;;7.03;1.73;;;14.40;99.90;;;;;;4924822;29;20027;-91
2022/04/01 19:39:41;;;;;;;6.60;1.48;;;14.40;99.90;;;;;;4940575;29;20044;-92
2022/04/01 19:42:09;;;;;;;2.75;1.13;;;14.40;99.90;;;;;;4924812;29;20027;-90
2022/04/01 19:44:36;;;;;;;12.75;2.08;;;14.30;99.90;;;;;;4943768;29;20061;-89
2022/04/01 19:47:04;;;;;;;4.78;0.80;;;14.30;99.90;;;;;;4931292;29;20032;-90
2022/04/01 19:49:32;;;;;;;4.28;1.10;;;14.30;99.90;;;;;;4946356;29;20034;-90
2022/04/01 19:51:59;;;;;;;1.70;1.13;;;14.30;99.90;;;;;;4928107;29;20024;-88
2022/04/01 19:54:27;;;;;;;11.80;1.45;;;14.30;99.90;;;;;;4942557;29;20035;-88
2022/04/01 19:56:54;;;;;;;1.13;0.90;;;14.20;99.90;;;;;;4928747;29;20048;-87
2022/04/01 19:59:22;;;;;;;5.85;1.67;;;14.10;99.90;;;;;;4941242;29;20028;-87
2022/04/01 20:01:48;;;;;;;3.75;1.13;;;14.10;99.90;;;;;;4926831;29;20027;-87
2022/04/01 20:04:15;;;;;;;22.17;4.38;;;14.10;99.90;;;;;;4939439;29;20035;-88